Time;durP1;ratioP1;P1;durP2;ratioP2;P2;SDS_P1;SDS_P2;PMS_P1;PMS_P2;Temp;Humidity;BMP_temperature;BMP_pressure;BME280_temperature;BME280_humidity;BME280_pressure;Samples;Min_cycle;Max_cycle;Signal;HPM_P1;HPM_P2
2023/07/04 00:00:43;;;;;;;6.07;2.75;;;13.70;99.90;;;;;;5068484;28;20055;-78
2023/07/04 00:03:09;;;;;;;7.40;3.53;;;13.70;99.90;;;;;;5069234;28;20131;-77
2023/07/04 00:05:34;;;;;;;7.68;2.92;;;13.70;99.90;;;;;;5068827;28;20199;-77
2023/07/04 00:08:00;;;;;;;7.07;2.78;;;13.60;99.90;;;;;;5067489;28;20052;-78
2023/07/04 00:10:25;;;;;;;9.82;2.95;;;13.70;99.90;;;;;;5067254;28;20036;-78
2023/07/04 00:12:51;;;;;;;7.30;2.92;;;13.70;99.90;;;;;;5067931;28;20544;-78
2023/07/04 00:15:16;;;;;;;6.32;3.15;;;13.60;99.90;;;;;;5054615;28;20037;-77
2023/07/04 00:17:42;;;;;;;8.15;3.00;;;13.60;99.90;;;;;;5047838;28;20048;-77
2023/07/04 00:20:09;;;;;;;12.52;4.15;;;13.60;99.90;;;;;;5065187;28;20420;-77
2023/07/04 00:22:36;;;;;;;6.35;3.05;;;13.60;99.90;;;;;;5067831;28;20060;-77
2023/07/04 00:25:02;;;;;;;10.57;3.20;;;13.60;99.90;;;;;;5068387;28;20055;-77
2023/07/04 00:27:28;;;;;;;7.22;2.83;;;13.50;99.90;;;;;;5050553;28;20049;-77
2023/07/04 00:29:54;;;;;;;7.97;3.30;;;13.50;99.90;;;;;;5067054;28;20642;-77
2023/07/04 00:32:20;;;;;;;6.75;2.92;;;13.50;99.90;;;;;;5068219;28;20049;-77
2023/07/04 00:34:45;;;;;;;10.32;3.42;;;13.70;99.90;;;;;;5066267;28;20040;-77
2023/07/04 00:37:12;;;;;;;10.75;3.50;;;13.40;99.90;;;;;;5083518;28;20055;-77
2023/07/04 00:39:37;;;;;;;7.15;3.10;;;13.40;99.90;;;;;;5050370;28;20052;-76
2023/07/04 00:42:08;;;;;;;10.75;4.35;;;13.50;99.90;;;;;;5068179;28;20407;-76
2023/07/04 00:44:37;;;;;;;10.52;4.18;;;13.40;99.90;;;;;;5066594;28;20119;-76
2023/07/04 00:47:21;;;;;;;10.85;4.13;;;13.50;99.90;;;;;;5066849;28;20473;-77
2023/07/04 00:49:57;;;;;;;7.60;3.60;;;13.40;99.90;;;;;;5083322;28;20060;-77
2023/07/04 00:52:33;;;;;;;10.45;3.90;;;13.50;99.90;;;;;;5068535;28;20131;-77
2023/07/04 00:55:04;;;;;;;9.27;4.43;;;13.40;99.90;;;;;;5067298;28;20109;-77
2023/07/04 00:57:31;;;;;;;13.43;5.50;;;13.40;99.90;;;;;;5067635;28;20044;-77
2023/07/04 00:59:58;;;;;;;11.63;4.13;;;13.40;99.90;;;;;;5066242;28;20484;-77
2023/07/04 01:02:31;;;;;;;11.68;4.22;;;13.40;99.90;;;;;;5068056;28;20048;-77
2023/07/04 01:04:58;;;;;;;10.68;5.13;;;13.40;99.90;;;;;;5067858;28;20052;-77
2023/07/04 01:07:30;;;;;;;15.77;4.47;;;13.40;99.90;;;;;;5068016;28;20098;-77
2023/07/04 01:10:06;;;;;;;8.65;3.65;;;13.40;99.90;;;;;;5067777;28;20056;-76
2023/07/04 01:12:31;;;;;;;8.13;3.50;;;13.40;99.90;;;;;;5067421;28;20049;-77
2023/07/04 01:15:01;;;;;;;9.68;3.95;;;13.40;99.90;;;;;;5067383;28;20102;-77
2023/07/04 01:17:27;;;;;;;10.68;3.97;;;13.40;99.90;;;;;;5067484;28;20037;-77
2023/07/04 01:19:53;;;;;;;9.63;3.85;;;13.30;99.90;;;;;;5067459;28;20071;-77
2023/07/04 01:22:41;;;;;;;8.18;3.38;;;13.30;99.90;;;;;;5067567;28;20052;-78
2023/07/04 01:25:41;;;;;;;7.85;3.13;;;13.30;99.90;;;;;;5067632;28;20040;-77
2023/07/04 01:28:07;;;;;;;9.40;3.28;;;13.30;99.90;;;;;;5067061;28;20400;-77
2023/07/04 01:30:38;;;;;;;11.45;3.42;;;13.20;99.90;;;;;;5067859;28;20048;-77
2023/07/04 01:33:05;;;;;;;7.80;4.15;;;13.20;99.90;;;;;;5066716;28;20045;-77
2023/07/04 01:35:33;;;;;;;13.30;4.00;;;13.20;99.90;;;;;;5065711;28;20515;-77
2023/07/04 01:37:59;;;;;;;12.20;3.10;;;13.30;99.90;;;;;;5066095;28;20083;-77
2023/07/04 01:40:25;;;;;;;6.95;3.33;;;13.30;99.90;;;;;;5068010;28;20068;-77
2023/07/04 01:42:51;;;;;;;9.48;3.17;;;13.30;99.90;;;;;;5068772;28;20044;-77
2023/07/04 01:45:17;;;;;;;9.52;3.70;;;13.40;99.90;;;;;;5068493;28;20588;-76
2023/07/04 01:47:44;;;;;;;13.43;4.28;;;13.40;99.90;;;;;;5067576;28;20451;-77
2023/07/04 01:50:11;;;;;;;9.60;3.42;;;13.40;99.90;;;;;;5066099;28;20056;-77
2023/07/04 01:52:38;;;;;;;10.50;3.70;;;13.40;99.90;;;;;;5067923;28;20075;-77
2023/07/04 01:55:04;;;;;;;9.57;3.92;;;13.40;99.90;;;;;;5068681;28;20044;-77
2023/07/04 01:57:29;;;;;;;10.13;3.78;;;13.40;99.90;;;;;;5068194;28;20469;-77
2023/07/04 01:59:55;;;;;;;5.40;3.08;;;13.30;99.90;;;;;;5067523;28;20032;-78
2023/07/04 02:02:21;;;;;;;10.18;3.42;;;13.30;99.90;;;;;;5066714;28;20136;-77
2023/07/04 02:04:46;;;;;;;6.70;3.28;;;13.20;99.90;;;;;;5067375;28;20045;-77
2023/07/04 02:07:12;;;;;;;7.40;3.47;;;13.20;99.90;;;;;;5067315;28;20057;-77
2023/07/04 02:09:38;;;;;;;8.70;3.70;;;13.20;99.90;;;;;;5066409;28;20041;-77
2023/07/04 02:12:03;;;;;;;8.60;3.50;;;13.20;99.90;;;;;;5066100;28;20048;-77
2023/07/04 02:14:29;;;;;;;7.63;3.20;;;13.10;99.90;;;;;;5051738;28;20407;-77
2023/07/04 02:16:55;;;;;;;11.38;3.90;;;13.10;99.90;;;;;;5070948;28;20102;-77
2023/07/04 02:19:20;;;;;;;8.65;4.05;;;13.10;99.90;;;;;;5059463;28;20078;-77
2023/07/04 02:21:46;;;;;;;9.00;4.03;;;13.10;99.90;;;;;;5070599;28;20048;-77
2023/07/04 02:24:12;;;;;;;6.57;3.28;;;13.10;99.90;;;;;;5070734;28;20044;-77
2023/07/04 02:26:37;;;;;;;8.68;3.40;;;13.00;99.90;;;;;;5070728;28;20048;-77
2023/07/04 02:29:03;;;;;;;10.43;4.07;;;13.00;99.90;;;;;;5070846;28;20496;-77
2023/07/04 02:31:29;;;;;;;9.18;3.38;;;13.10;99.90;;;;;;5052435;28;20048;-76
2023/07/04 02:33:55;;;;;;;6.68;3.28;;;13.00;99.90;;;;;;5070403;28;20052;-77
2023/07/04 02:36:21;;;;;;;8.82;3.80;;;13.00;99.90;;;;;;5070307;28;20044;-78
2023/07/04 02:38:47;;;;;;;7.10;3.30;;;13.00;99.90;;;;;;5069933;28;20135;-77
2023/07/04 02:41:12;;;;;;;7.80;3.10;;;13.00;99.90;;;;;;5068640;28;20040;-77
2023/07/04 02:43:38;;;;;;;6.93;3.70;;;13.00;99.90;;;;;;5070228;28;20086;-77
2023/07/04 02:46:06;;;;;;;8.43;3.50;;;12.90;99.90;;;;;;5070624;28;20055;-77
2023/07/04 02:48:33;;;;;;;6.88;3.03;;;12.90;99.90;;;;;;5071190;28;20131;-78
2023/07/04 02:50:59;;;;;;;8.98;3.63;;;12.90;99.90;;;;;;5069728;28;20072;-77
2023/07/04 02:53:25;;;;;;;10.50;3.55;;;12.90;99.90;;;;;;5069852;28;20049;-78
2023/07/04 02:55:52;;;;;;;9.35;3.00;;;12.80;99.90;;;;;;5069234;28;20066;-77
2023/07/04 02:58:18;;;;;;;8.07;3.53;;;12.80;99.90;;;;;;5069234;28;20156;-77
2023/07/04 03:00:46;;;;;;;8.45;3.30;;;12.80;99.90;;;;;;5069408;28;20044;-77
2023/07/04 03:03:12;;;;;;;6.70;3.22;;;12.80;99.90;;;;;;5068922;28;20071;-78
2023/07/04 03:05:37;;;;;;;5.97;3.20;;;12.80;99.90;;;;;;5069375;28;20137;-77
2023/07/04 03:08:04;;;;;;;8.27;3.30;;;12.80;99.90;;;;;;5070786;28;20048;-78
2023/07/04 03:10:30;;;;;;;9.27;3.58;;;12.90;99.90;;;;;;5070603;28;20040;-77
2023/07/04 03:12:56;;;;;;;8.00;3.75;;;12.90;99.90;;;;;;5069294;28;20131;-77
2023/07/04 03:15:22;;;;;;;15.45;4.35;;;12.90;99.90;;;;;;5069224;28;20261;-77
2023/07/04 03:17:48;;;;;;;8.48;3.40;;;12.90;99.90;;;;;;5051726;28;20051;-77
2023/07/04 03:20:14;;;;;;;6.20;4.05;;;12.90;99.90;;;;;;5069821;28;20496;-78
2023/07/04 03:22:41;;;;;;;9.45;3.05;;;12.80;99.90;;;;;;5070428;28;20060;-77
2023/07/04 03:25:07;;;;;;;8.48;3.30;;;12.90;99.90;;;;;;5068854;28;20047;-77
2023/07/04 03:27:36;;;;;;;7.10;3.65;;;12.80;99.90;;;;;;5069226;28;20040;-77
2023/07/04 03:30:02;;;;;;;9.30;4.20;;;12.80;99.90;;;;;;5070688;28;20045;-77
2023/07/04 03:32:28;;;;;;;6.82;3.58;;;12.80;99.90;;;;;;5070401;28;20048;-77
2023/07/04 03:34:55;;;;;;;13.27;3.80;;;12.80;99.90;;;;;;5069624;28;20508;-77
2023/07/04 03:37:21;;;;;;;10.73;3.60;;;12.80;99.90;;;;;;5069306;28;20062;-77
2023/07/04 03:39:46;;;;;;;8.38;3.83;;;12.80;99.90;;;;;;5069028;28;20048;-78
2023/07/04 03:42:12;;;;;;;9.95;3.85;;;12.80;99.90;;;;;;5070528;28;20124;-77
2023/07/04 03:44:37;;;;;;;10.90;3.80;;;12.80;99.90;;;;;;5037897;28;20408;-77
2023/07/04 03:47:03;;;;;;;9.18;3.28;;;12.80;99.90;;;;;;5050656;28;20476;-77
2023/07/04 03:49:29;;;;;;;8.15;4.00;;;12.80;99.90;;;;;;5068683;28;20502;-77
2023/07/04 03:51:54;;;;;;;8.45;3.75;;;12.80;99.90;;;;;;5070167;28;20068;-77
2023/07/04 03:54:20;;;;;;;10.18;3.58;;;12.80;99.90;;;;;;5069972;28;20037;-77
2023/07/04 03:56:46;;;;;;;12.95;3.90;;;12.80;99.90;;;;;;5069125;28;20408;-77
2023/07/04 03:59:11;;;;;;;10.68;3.97;;;12.80;99.90;;;;;;5052454;28;20056;-77
2023/07/04 04:01:37;;;;;;;9.52;4.03;;;12.80;99.90;;;;;;5068972;28;20051;-77
2023/07/04 04:04:02;;;;;;;11.70;4.30;;;12.80;99.90;;;;;;5068559;28;20047;-77
2023/07/04 04:06:28;;;;;;;10.80;4.57;;;12.90;99.90;;;;;;5068248;28;20045;-78
2023/07/04 04:08:54;;;;;;;7.82;4.05;;;12.90;99.90;;;;;;5069734;28;20095;-77
2023/07/04 04:11:19;;;;;;;12.45;3.65;;;12.90;99.90;;;;;;5068917;28;20106;-76
2023/07/04 04:13:45;;;;;;;9.75;3.92;;;12.90;99.90;;;;;;5068663;28;20045;-76
2023/07/04 04:16:10;;;;;;;11.55;4.43;;;13.00;99.90;;;;;;5068563;28;20070;-77
2023/07/04 04:18:36;;;;;;;9.52;3.95;;;13.00;99.90;;;;;;5067352;28;20089;-76
2023/07/04 04:21:02;;;;;;;10.43;3.92;;;13.00;99.90;;;;;;5056437;28;20127;-77
2023/07/04 04:23:27;;;;;;;9.35;3.83;;;13.00;99.90;;;;;;5068913;28;20040;-77
2023/07/04 04:25:53;;;;;;;9.60;3.80;;;13.00;99.90;;;;;;5068000;28;20056;-76
2023/07/04 04:28:18;;;;;;;7.43;4.10;;;13.00;99.90;;;;;;5065083;28;20044;-78
2023/07/04 04:30:44;;;;;;;9.95;4.20;;;13.10;99.90;;;;;;5082190;28;20466;-77
2023/07/04 04:33:09;;;;;;;10.00;3.63;;;13.10;99.90;;;;;;5050782;28;20139;-77
2023/07/04 04:35:38;;;;;;;9.18;4.40;;;13.20;99.90;;;;;;5066726;28;20132;-77
2023/07/04 04:38:04;;;;;;;7.70;3.75;;;13.20;99.90;;;;;;5068162;28;20041;-77
2023/07/04 04:40:31;;;;;;;6.10;3.50;;;13.20;99.90;;;;;;5067288;28;20522;-77
2023/07/04 04:42:57;;;;;;;7.82;3.60;;;13.30;99.90;;;;;;5067068;28;20128;-77
2023/07/04 04:45:25;;;;;;;8.13;3.60;;;13.30;99.90;;;;;;5067313;28;20115;-77
2023/07/04 04:47:54;;;;;;;8.35;3.33;;;13.40;99.90;;;;;;5063102;28;20079;-77
2023/07/04 04:50:21;;;;;;;7.97;3.55;;;13.40;99.90;;;;;;5063249;28;20094;-76
2023/07/04 04:52:47;;;;;;;8.77;3.63;;;13.50;99.90;;;;;;5047446;28;20052;-77
2023/07/04 04:55:13;;;;;;;6.20;3.58;;;13.50;99.90;;;;;;5068398;28;20052;-78
2023/07/04 04:57:39;;;;;;;8.43;3.30;;;13.50;99.90;;;;;;5066320;28;20048;-78
2023/07/04 05:00:05;;;;;;;7.15;3.10;;;13.60;99.90;;;;;;5067045;28;20041;-78
2023/07/04 05:02:31;;;;;;;5.93;2.97;;;13.60;99.90;;;;;;5066151;28;20451;-78
2023/07/04 05:04:59;;;;;;;6.90;3.00;;;13.70;99.90;;;;;;5065262;28;20086;-77
2023/07/04 05:07:25;;;;;;;11.18;2.40;;;13.70;99.90;;;;;;5059338;28;20087;-77
2023/07/04 05:09:53;;;;;;;5.43;2.90;;;13.70;99.90;;;;;;5055688;28;20040;-78
2023/07/04 05:12:22;;;;;;;7.22;3.00;;;13.80;99.90;;;;;;5063927;28;20040;-78
2023/07/04 05:14:47;;;;;;;7.00;2.92;;;13.70;99.90;;;;;;5044379;28;20408;-78
2023/07/04 05:17:13;;;;;;;4.28;2.33;;;13.70;99.90;;;;;;5047860;28;20144;-78
2023/07/04 05:19:39;;;;;;;6.25;2.25;;;13.80;99.90;;;;;;5062198;28;20058;-78
2023/07/04 05:22:04;;;;;;;7.05;2.63;;;13.80;99.90;;;;;;5066758;28;20071;-77
2023/07/04 05:24:31;;;;;;;6.35;2.53;;;13.80;99.90;;;;;;5065903;28;20106;-78
2023/07/04 05:26:56;;;;;;;4.30;2.85;;;13.80;99.90;;;;;;5054961;28;20028;-78
2023/07/04 05:29:22;;;;;;;5.80;2.50;;;13.90;99.90;;;;;;5053805;28;20040;-78
2023/07/04 05:31:48;;;;;;;5.38;2.90;;;13.90;99.90;;;;;;5048815;28;20087;-79
2023/07/04 05:34:14;;;;;;;4.38;2.22;;;14.00;99.90;;;;;;5062742;28;20045;-78
2023/07/04 05:36:39;;;;;;;4.95;2.30;;;14.00;99.90;;;;;;5047045;28;20068;-79
2023/07/04 05:39:08;;;;;;;7.00;2.85;;;14.10;99.90;;;;;;5046352;28;20091;-79
2023/07/04 05:41:35;;;;;;;4.18;2.15;;;14.30;99.90;;;;;;5047344;28;20582;-79
2023/07/04 05:44:04;;;;;;;6.47;2.20;;;14.20;99.90;;;;;;5029652;28;20091;-79
2023/07/04 05:46:30;;;;;;;6.65;2.67;;;14.20;99.90;;;;;;5046317;28;20049;-79
2023/07/04 05:48:57;;;;;;;6.60;2.80;;;14.30;99.90;;;;;;5084738;28;20040;-80
2023/07/04 05:51:23;;;;;;;2.95;2.05;;;14.30;99.90;;;;;;5052000;28;20135;-79
2023/07/04 05:53:50;;;;;;;5.47;2.13;;;14.40;99.90;;;;;;5069337;28;20056;-79
2023/07/04 05:56:34;;;;;;;4.95;2.05;;;14.50;99.90;;;;;;5069502;28;20056;-79
2023/07/04 05:59:02;;;;;;;5.30;2.20;;;14.60;99.90;;;;;;5068719;28;20573;-79
2023/07/04 06:01:35;;;;;;;5.57;2.40;;;14.60;99.90;;;;;;5085500;28;20056;-79
2023/07/04 06:04:06;;;;;;;4.07;1.80;;;14.80;99.90;;;;;;5069823;28;20044;-78
2023/07/04 06:06:44;;;;;;;7.25;2.35;;;15.00;99.90;;;;;;5071312;28;20119;-79
2023/07/04 06:09:14;;;;;;;5.78;1.75;;;14.90;99.90;;;;;;5070636;28;20053;-79
2023/07/04 06:11:46;;;;;;;4.93;2.20;;;15.00;99.90;;;;;;5069683;28;20044;-79
2023/07/04 06:14:32;;;;;;;4.80;2.00;;;15.20;99.90;;;;;;5069890;28;20385;-80
2023/07/04 06:16:59;;;;;;;4.78;2.03;;;16.00;99.90;;;;;;5070676;28;20171;-79
2023/07/04 06:19:25;;;;;;;2.15;1.50;;;17.30;99.90;;;;;;5069056;28;20408;-80
2023/07/04 06:21:51;;;;;;;4.65;2.03;;;17.90;99.90;;;;;;5070742;28;20479;-79
2023/07/04 06:24:17;;;;;;;3.38;1.50;;;18.30;99.90;;;;;;5068308;28;20048;-79
2023/07/04 06:26:43;;;;;;;4.40;1.60;;;18.40;99.90;;;;;;5066894;28;20127;-79
2023/07/04 06:29:09;;;;;;;3.58;1.60;;;18.40;99.90;;;;;;5070310;28;20053;-80
2023/07/04 06:31:34;;;;;;;3.25;1.70;;;18.60;99.90;;;;;;5069255;28;20051;-79
2023/07/04 06:34:00;;;;;;;4.50;1.70;;;18.30;99.90;;;;;;5069113;28;20097;-78
2023/07/04 06:36:26;;;;;;;4.82;1.95;;;18.00;99.90;;;;;;5070315;28;20055;-79
2023/07/04 06:38:52;;;;;;;3.45;1.83;;;17.70;99.90;;;;;;5069316;28;20052;-79
2023/07/04 06:41:18;;;;;;;4.72;1.63;;;17.40;99.90;;;;;;5069116;28;20049;-78
2023/07/04 06:43:45;;;;;;;5.03;2.00;;;17.20;99.90;;;;;;5068847;28;20076;-78
2023/07/04 06:46:17;;;;;;;4.70;1.70;;;17.00;99.90;;;;;;5070326;28;20459;-79
2023/07/04 06:48:46;;;;;;;3.35;1.65;;;16.90;99.90;;;;;;5070728;28;20119;-78
2023/07/04 06:51:12;;;;;;;4.90;1.40;;;16.70;99.90;;;;;;5068672;28;20683;-78
2023/07/04 06:53:39;;;;;;;4.47;1.40;;;16.60;99.90;;;;;;5068726;28;20048;-79
2023/07/04 06:56:13;;;;;;;4.38;1.70;;;16.60;99.90;;;;;;5068607;28;20800;-78
2023/07/04 06:58:41;;;;;;;4.38;1.45;;;16.50;99.90;;;;;;5051226;28;20843;-79
2023/07/04 07:01:09;;;;;;;3.58;1.70;;;16.60;99.90;;;;;;5069863;28;20124;-78
2023/07/04 07:03:34;;;;;;;5.70;1.77;;;16.60;99.90;;;;;;5068716;28;20052;-78
2023/07/04 07:06:04;;;;;;;3.20;1.40;;;16.70;99.90;;;;;;5068315;28;20110;-79
2023/07/04 07:08:31;;;;;;;6.25;1.70;;;16.70;99.90;;;;;;5068353;28;20044;-78
2023/07/04 07:10:59;;;;;;;3.80;1.40;;;16.70;99.90;;;;;;5069814;28;20119;-78
2023/07/04 07:13:25;;;;;;;3.15;1.50;;;16.80;99.90;;;;;;5068231;28;20520;-78
2023/07/04 07:15:53;;;;;;;3.13;1.70;;;16.90;99.90;;;;;;5053993;28;20405;-78
2023/07/04 07:18:19;;;;;;;3.10;1.40;;;16.80;99.90;;;;;;5049962;28;20143;-78
2023/07/04 07:20:44;;;;;;;4.13;1.45;;;16.90;99.90;;;;;;5049422;28;20429;-78
2023/07/04 07:23:11;;;;;;;6.10;1.40;;;17.10;99.90;;;;;;5049702;28;20051;-78
2023/07/04 07:25:37;;;;;;;3.17;1.30;;;17.10;99.90;;;;;;5048459;28;20045;-78
2023/07/04 07:28:03;;;;;;;3.78;1.45;;;17.20;99.90;;;;;;5048085;28;20056;-78
2023/07/04 07:30:29;;;;;;;15.77;2.45;;;17.30;99.90;;;;;;5058903;28;20045;-79
2023/07/04 07:32:54;;;;;;;2.63;1.38;;;17.40;99.90;;;;;;5050520;28;20049;-77
2023/07/04 07:35:20;;;;;;;4.97;1.55;;;17.30;99.90;;;;;;5069363;28;20037;-78
2023/07/04 07:37:45;;;;;;;6.43;2.17;;;17.30;99.90;;;;;;5068925;28;20037;-78
2023/07/04 07:40:12;;;;;;;3.35;1.27;;;17.40;99.90;;;;;;5069098;28;20116;-79
2023/07/04 07:42:37;;;;;;;5.15;1.60;;;17.40;99.90;;;;;;5068322;28;20433;-79
2023/07/04 07:45:03;;;;;;;6.22;1.42;;;17.60;99.90;;;;;;5069216;28;20060;-79
2023/07/04 07:47:29;;;;;;;3.55;1.48;;;17.60;99.90;;;;;;5070269;28;20051;-80
2023/07/04 07:49:55;;;;;;;3.65;1.30;;;17.80;99.90;;;;;;5068978;28;20512;-80
2023/07/04 07:52:21;;;;;;;4.75;1.67;;;17.80;99.90;;;;;;5069238;28;20048;-80
2023/07/04 07:54:46;;;;;;;3.45;1.60;;;17.80;99.90;;;;;;5052319;28;20044;-79
2023/07/04 07:57:12;;;;;;;4.40;1.70;;;17.80;99.90;;;;;;5061637;28;20048;-80
2023/07/04 07:59:38;;;;;;;5.13;1.95;;;17.80;99.90;;;;;;5066220;28;20135;-81
2023/07/04 08:02:03;;;;;;;4.28;1.23;;;17.90;99.90;;;;;;5067430;28;20044;-79
2023/07/04 08:04:29;;;;;;;3.67;1.45;;;17.80;99.90;;;;;;5069127;28;20079;-79
2023/07/04 08:06:55;;;;;;;5.72;1.65;;;17.90;99.90;;;;;;5064693;28;20044;-79
2023/07/04 08:09:20;;;;;;;2.70;1.23;;;18.20;99.90;;;;;;5075030;28;20044;-79
2023/07/04 08:11:48;;;;;;;4.63;1.40;;;18.20;99.90;;;;;;5056272;28;20497;-79
2023/07/04 08:14:17;;;;;;;5.22;1.70;;;18.20;99.90;;;;;;5058820;28;20044;-79
2023/07/04 08:16:47;;;;;;;7.47;2.10;;;18.30;99.90;;;;;;5056428;28;20084;-80
2023/07/04 08:19:15;;;;;;;6.05;1.52;;;18.40;99.90;;;;;;5056907;28;20080;-81
2023/07/04 08:21:41;;;;;;;6.75;1.77;;;18.40;99.90;;;;;;5067404;28;20044;-81
2023/07/04 08:24:10;;;;;;;3.65;1.30;;;18.40;99.90;;;;;;5066755;28;20090;-82
2023/07/04 08:26:38;;;;;;;4.28;1.90;;;18.50;99.90;;;;;;5065993;28;20431;-81
2023/07/04 08:29:05;;;;;;;6.05;1.88;;;18.00;99.90;;;;;;5066734;28;20080;-80
2023/07/04 08:31:30;;;;;;;12.57;2.15;;;17.90;99.90;;;;;;5068603;28;20091;-81
2023/07/04 08:33:56;;;;;;;9.27;2.03;;;17.80;99.90;;;;;;5061410;28;20077;-82
2023/07/04 08:36:22;;;;;;;7.13;2.00;;;17.80;99.90;;;;;;5056066;28;20064;-81
2023/07/04 08:38:49;;;;;;;7.22;2.28;;;17.90;99.90;;;;;;5067977;28;20040;-84
2023/07/04 08:41:23;;;;;;;5.07;2.05;;;18.00;99.90;;;;;;5047932;28;20111;-85
2023/07/04 08:44:05;;;;;;;4.93;2.10;;;18.10;99.90;;;;;;5053250;28;20107;-83
2023/07/04 08:46:39;;;;;;;4.78;2.00;;;18.00;99.90;;;;;;5066929;28;20603;-86
2023/07/04 08:49:07;;;;;;;8.18;1.90;;;17.80;99.90;;;;;;5050577;28;20153;-85
2023/07/04 08:51:44;;;;;;;9.45;1.83;;;17.80;99.90;;;;;;5050359;28;20056;-87
2023/07/04 08:54:12;;;;;;;6.93;1.80;;;17.80;99.90;;;;;;5066219;28;20053;-86
2023/07/04 08:56:38;;;;;;;6.68;1.60;;;17.60;99.90;;;;;;5065344;28;20086;-87
2023/07/04 08:59:40;;;;;;;6.10;2.00;;;17.40;99.90;;;;;;5067250;28;20055;-87
2023/07/04 09:02:12;;;;;;;7.07;2.03;;;17.40;99.90;;;;;;5041732;28;20061;-85
2023/07/04 09:04:55;;;;;;;4.95;2.00;;;17.50;99.90;;;;;;5066112;28;20083;-86
2023/07/04 09:07:39;;;;;;;7.07;1.80;;;17.60;99.90;;;;;;5049840;28;20056;-87
2023/07/04 09:10:36;;;;;;;4.82;2.03;;;17.70;99.90;;;;;;5050411;28;20508;-87
2023/07/04 09:13:08;;;;;;;5.03;1.90;;;17.70;99.90;;;;;;5066408;28;20047;-85
2023/07/04 09:15:36;;;;;;;;;;;17.80;99.90;;;;;;5065866;28;20569;-85
2023/07/04 09:18:26;;;;;;;6.35;2.10;;;17.70;99.90;;;;;;5048637;28;19924;-85
2023/07/04 09:21:01;;;;;;;7.07;2.20;;;17.80;99.90;;;;;;5065729;28;20040;-85
2023/07/04 09:23:26;;;;;;;8.07;2.33;;;17.80;99.90;;;;;;5066518;28;20539;-84
2023/07/04 09:25:54;;;;;;;5.95;2.00;;;18.00;99.90;;;;;;5066338;28;20044;-85
2023/07/04 09:28:20;;;;;;;6.25;2.08;;;17.80;99.90;;;;;;5064858;28;20502;-84
2023/07/04 09:30:46;;;;;;;5.93;2.55;;;17.80;99.90;;;;;;5066246;28;20037;-85
2023/07/04 09:33:14;;;;;;;7.75;2.35;;;17.70;99.90;;;;;;5066979;28;20087;-85
2023/07/04 09:35:41;;;;;;;7.97;2.10;;;17.70;99.90;;;;;;5049435;28;20041;-84
2023/07/04 09:38:07;;;;;;;5.88;1.90;;;17.80;99.90;;;;;;5066261;28;20043;-85
2023/07/04 09:40:49;;;;;;;8.13;1.80;;;17.90;99.90;;;;;;5066606;28;20048;-86
2023/07/04 09:43:29;;;;;;;8.48;2.63;;;18.10;99.90;;;;;;5067139;28;20052;-84
2023/07/04 09:46:11;;;;;;;5.70;1.90;;;18.30;99.90;;;;;;5067189;28;20040;-85
2023/07/04 09:48:36;;;;;;;;;;;18.70;99.90;;;;;;5068792;28;20265;-85
2023/07/04 09:51:21;;;;;;;7.07;2.05;;;19.00;99.90;;;;;;5065580;28;20537;-85
2023/07/04 09:53:46;;;;;;;5.47;2.05;;;19.40;99.90;;;;;;5068428;28;20097;-89
2023/07/04 09:56:24;;;;;;;5.63;2.10;;;19.30;99.90;;;;;;5050320;28;20052;-89
2023/07/04 09:59:21;;;;;;;6.28;1.73;;;19.50;99.90;;;;;;5068117;28;20057;-88
2023/07/04 10:01:49;;;;;;;10.48;2.53;;;19.60;99.90;;;;;;5067834;28;20143;-88
2023/07/04 10:04:49;;;;;;;5.22;1.88;;;19.60;99.90;;;;;;5066906;28;20415;-84
2023/07/04 10:07:22;;;;;;;8.65;2.22;;;19.80;99.90;;;;;;5040464;28;20538;-83
2023/07/04 10:09:52;;;;;;;3.95;1.95;;;19.80;99.90;;;;;;5065718;28;20052;-83
2023/07/04 10:12:19;;;;;;;5.30;1.70;;;19.90;99.90;;;;;;5056460;28;20515;-84
2023/07/04 10:14:52;;;;;;;8.05;2.25;;;19.80;99.90;;;;;;5064258;28;20431;-83
2023/07/04 10:17:29;;;;;;;5.20;2.22;;;19.60;99.90;;;;;;5065428;28;20052;-84
2023/07/04 10:19:57;;;;;;;3.78;1.50;;;19.80;99.90;;;;;;5065637;28;20056;-85
2023/07/04 10:22:30;;;;;;;6.20;2.22;;;19.70;99.90;;;;;;5059006;28;20513;-84
2023/07/04 10:24:58;;;;;;;5.75;2.03;;;19.60;99.90;;;;;;5062584;28;20052;-84
2023/07/04 10:27:32;;;;;;;6.00;2.33;;;19.60;99.90;;;;;;5041529;28;20127;-84
2023/07/04 10:30:00;;;;;;;6.43;2.13;;;19.50;99.90;;;;;;5048263;28;20586;-84
2023/07/04 10:32:26;;;;;;;8.40;2.67;;;19.50;99.90;;;;;;5065037;28;20041;-85
2023/07/04 10:34:52;;;;;;;5.35;1.83;;;19.10;99.90;;;;;;5067591;28;20044;-86
2023/07/04 10:37:27;;;;;;;6.38;2.30;;;19.20;99.90;;;;;;5068985;28;20143;-83
2023/07/04 10:40:00;;;;;;;7.75;1.92;;;19.40;99.90;;;;;;5069390;28;20048;-82
2023/07/04 10:42:36;;;;;;;7.80;2.08;;;19.50;99.90;;;;;;5068139;28;20048;-85
2023/07/04 10:45:06;;;;;;;6.10;1.90;;;19.50;99.40;;;;;;5067934;28;20056;-84
2023/07/04 10:47:37;;;;;;;4.00;2.08;;;19.60;99.80;;;;;;5052516;28;20052;-84
2023/07/04 10:50:11;;;;;;;7.05;2.17;;;19.60;99.90;;;;;;5040763;28;20106;-84
2023/07/04 10:52:43;;;;;;;5.05;1.95;;;19.50;99.90;;;;;;5071616;28;20625;-85
2023/07/04 10:55:29;;;;;;;5.57;2.33;;;19.30;99.90;;;;;;5068989;28;20098;-86
2023/07/04 10:58:01;;;;;;;5.55;2.58;;;19.40;99.90;;;;;;5070023;28;20416;-84
2023/07/04 11:00:44;;;;;;;8.70;2.38;;;19.50;99.90;;;;;;5069249;28;20062;-86
2023/07/04 11:03:15;;;;;;;;;;;19.40;99.90;;;;;;5053188;28;20052;-84
2023/07/04 11:05:44;;;;;;;6.80;2.03;;;19.50;99.90;;;;;;5067993;28;19973;-85
2023/07/04 11:08:18;;;;;;;4.90;1.75;;;19.70;99.90;;;;;;5051395;28;20075;-87
2023/07/04 11:10:49;;;;;;;4.97;1.70;;;19.80;97.30;;;;;;5070444;28;20048;-86
2023/07/04 11:13:17;;;;;;;6.15;1.75;;;20.20;96.50;;;;;;5052794;28;20071;-86
2023/07/04 11:15:46;;;;;;;7.93;1.83;;;20.70;95.50;;;;;;5068648;28;20075;-86
2023/07/04 11:18:16;;;;;;;4.72;2.15;;;20.80;94.30;;;;;;5067979;28;20044;-86
2023/07/04 11:21:05;;;;;;;6.45;1.98;;;20.70;92.30;;;;;;5068202;28;20059;-85
2023/07/04 11:23:56;;;;;;;3.33;1.60;;;20.90;88.00;;;;;;5066678;28;20096;-84
2023/07/04 11:27:02;;;;;;;4.03;1.40;;;20.40;86.80;;;;;;5069020;28;20349;-87
2023/07/04 11:29:55;;;;;;;3.72;1.63;;;20.10;85.90;;;;;;5053587;28;20478;-85
2023/07/04 11:32:52;;;;;;;4.57;1.27;;;20.10;87.20;;;;;;5068062;28;20166;-83
2023/07/04 11:35:22;;;;;;;3.90;1.70;;;20.10;86.90;;;;;;5066178;28;20064;-83
2023/07/04 11:37:57;;;;;;;4.82;1.40;;;20.20;88.00;;;;;;5070900;28;20040;-84
2023/07/04 11:40:31;;;;;;;5.10;1.42;;;20.00;82.60;;;;;;5069008;28;20523;-84
2023/07/04 11:43:03;;;;;;;3.65;1.38;;;19.90;82.80;;;;;;5068442;28;20040;-84
2023/07/04 11:45:29;;;;;;;;;;;19.90;83.30;;;;;;5068656;28;20594;-84
2023/07/04 11:48:10;;;;;;;3.70;1.33;;;20.00;77.30;;;;;;5068179;28;19935;-84
2023/07/04 11:50:42;;;;;;;3.30;1.40;;;20.10;79.10;;;;;;5067639;28;20049;-85
2023/07/04 11:53:37;;;;;;;3.72;1.35;;;20.10;80.10;;;;;;5068173;28;20466;-84
2023/07/04 11:56:26;;;;;;;7.30;1.88;;;20.20;80.20;;;;;;5062908;28;20539;-84
2023/07/04 11:59:11;;;;;;;3.90;1.50;;;20.40;80.10;;;;;;5048028;28;20037;-84
2023/07/04 12:01:51;;;;;;;7.93;1.83;;;20.60;80.80;;;;;;5063121;28;20051;-83
2023/07/04 12:04:45;;;;;;;4.88;1.70;;;20.80;82.70;;;;;;5067269;28;20044;-83
2023/07/04 12:07:29;;;;;;;5.07;1.63;;;20.90;81.40;;;;;;5069318;28;20875;-85
2023/07/04 12:10:01;;;;;;;7.63;1.90;;;21.10;82.60;;;;;;5067304;28;20048;-83
2023/07/04 12:12:29;;;;;;;7.53;2.28;;;21.20;84.20;;;;;;5069013;28;20048;-83
2023/07/04 12:15:09;;;;;;;8.13;2.03;;;21.20;83.70;;;;;;5062651;28;20504;-83
2023/07/04 12:17:40;;;;;;;5.93;1.67;;;21.20;83.50;;;;;;5073887;28;20085;-85
2023/07/04 12:20:13;;;;;;;4.93;1.88;;;21.20;81.00;;;;;;5067033;28;20044;-84
2023/07/04 12:22:44;;;;;;;6.82;2.28;;;21.20;84.10;;;;;;5062973;28;20051;-83
2023/07/04 12:25:20;;;;;;;8.00;2.33;;;21.00;83.40;;;;;;5068166;28;20048;-84
2023/07/04 12:27:46;;;;;;;7.70;2.17;;;20.90;85.30;;;;;;5083095;28;20294;-86
2023/07/04 12:30:13;;;;;;;7.13;1.90;;;20.80;87.80;;;;;;5067251;28;20044;-84
2023/07/04 12:32:39;;;;;;;9.27;2.00;;;20.70;88.20;;;;;;5068790;28;20101;-82
2023/07/04 12:35:06;;;;;;;5.38;1.90;;;20.60;88.70;;;;;;5067269;28;20057;-81
2023/07/04 12:37:39;;;;;;;5.28;1.75;;;20.70;86.30;;;;;;5067133;28;20052;-82
2023/07/04 12:40:11;;;;;;;7.95;1.40;;;20.80;82.80;;;;;;5065752;28;20583;-81
2023/07/04 12:42:37;;;;;;;6.60;1.65;;;20.80;81.90;;;;;;5050095;28;20127;-81
2023/07/04 12:45:22;;;;;;;6.15;1.58;;;20.90;80.60;;;;;;5055214;28;20136;-82
2023/07/04 12:47:50;;;;;;;4.50;1.77;;;20.90;75.50;;;;;;5065781;28;20136;-83
2023/07/04 12:50:17;;;;;;;4.22;1.50;;;21.10;76.70;;;;;;5042111;28;20049;-84
2023/07/04 12:52:45;;;;;;;5.90;1.42;;;21.20;77.50;;;;;;5038834;28;20084;-82
2023/07/04 12:55:28;;;;;;;3.40;1.25;;;21.30;75.80;;;;;;5060711;28;20052;-82
2023/07/04 12:57:55;;;;;;;5.30;1.40;;;21.30;74.20;;;;;;5058119;28;20044;-83